Terminal Aerodrome Forecast
Issued by NWS Tulsa, OK

Home | Current Version | Previous Version | Text Only | Print | Product List | Glossary On
Versions: 1 2 3 4 5 6 7 8 9 10 11 12 13 14 15 16 17 18
000
FTUS44 KTSA 182300
TAFTUL
TAF
KTUL 182337Z 1900/1924 35004KT P6SM OVC010
     FM190200 35004KT 6SM BR OVC007
     FM190600 36002KT 3SM BR OVC004
     FM191500 01002KT 4SM BR OVC007
     FM191900 02004KT P6SM OVC012=

USA.gov is the U.S. government's official web portal to all federal, state and local government web resources and services.